createdAt,value
2019-04-04T00:01:32.723Z,99413.23
2019-04-04T00:04:04.107Z,99419.33
2019-04-04T00:06:35.379Z,99424.09
2019-04-04T00:09:10.307Z,99423.13
2019-04-04T00:11:41.693Z,99420.36
2019-04-04T00:14:13.521Z,99414.05
2019-04-04T00:16:46.742Z,99417.48
2019-04-04T00:19:18.083Z,99423.98
2019-04-04T00:21:49.471Z,99429.14
2019-04-04T00:24:20.829Z,99425.58
2019-04-04T00:26:52.128Z,99427.76
2019-04-04T00:29:23.419Z,99436.03
2019-04-04T00:31:54.611Z,99438.13
2019-04-04T00:34:27.946Z,99432.71
2019-04-04T00:36:58.803Z,99435.64
2019-04-04T00:39:31.134Z,99446.53
2019-04-04T00:42:02.784Z,99435.40
2019-04-04T00:44:34.186Z,99443.95
2019-04-04T00:47:05.410Z,99435.41
2019-04-04T00:49:37.702Z,99437.80
2019-04-04T00:52:10.333Z,99438.09
2019-04-04T00:54:44.654Z,99449.31
2019-04-04T00:57:18.576Z,99452.58
2019-04-04T00:59:48.693Z,99436.95
2019-04-04T01:02:20.130Z,99444.69
2019-04-04T01:04:51.679Z,99451.48
2019-04-04T01:07:23.073Z,99456.09
2019-04-04T01:09:54.785Z,99452.28
2019-04-04T01:12:26.321Z,99477.88
2019-04-04T01:15:00.120Z,99472.60
2019-04-04T01:17:33.020Z,99482.63
2019-04-04T01:20:06.649Z,99485.19
2019-04-04T01:22:38.119Z,99483.92
2019-04-04T01:25:09.695Z,99477.92
2019-04-04T01:27:41.206Z,99492.95
2019-04-04T01:30:12.778Z,99488.30
2019-04-04T01:32:44.005Z,99486.31
2019-04-04T01:35:15.255Z,99501.77
2019-04-04T01:37:46.524Z,99499.73
2019-04-04T01:40:17.787Z,99490.63
2019-04-04T01:42:48.963Z,99481.33
2019-04-04T01:45:20.134Z,99485.34
2019-04-04T01:47:51.398Z,99478.91
2019-04-04T01:50:23.298Z,99478.16
2019-04-04T01:52:54.640Z,99472.20
2019-04-04T01:55:25.936Z,99477.28
2019-04-04T01:57:57.113Z,99488.52
2019-04-04T02:00:28.542Z,99492.78
2019-04-04T02:02:59.711Z,99490.97
2019-04-04T02:05:30.898Z,99478.48
2019-04-04T02:08:02.405Z,99483.16
2019-04-04T02:10:34.937Z,99483.56
2019-04-04T02:13:09.624Z,99485.20
2019-04-04T02:15:39.374Z,99478.10
2019-04-04T02:18:10.514Z,99482.94
2019-04-04T02:20:41.694Z,99478.91
2019-04-04T02:23:12.894Z,99484.11
2019-04-04T02:25:44.124Z,99488.42
2019-04-04T02:28:15.280Z,99497.02
2019-04-04T02:30:48.478Z,99495.25
2019-04-04T02:33:19.334Z,99491.19
2019-04-04T02:35:50.572Z,99486.30
2019-04-04T02:38:21.806Z,99479.25
2019-04-04T02:40:53.029Z,99481.42
2019-04-04T02:43:27.337Z,99487.06
2019-04-04T02:45:57.084Z,99484.68
2019-04-04T02:48:28.231Z,99468.75
2019-04-04T02:50:59.360Z,99468.63
2019-04-04T02:53:30.501Z,99469.94
2019-04-04T02:56:03.239Z,99469.48
2019-04-04T02:58:34.642Z,99475.59
2019-04-04T03:01:05.834Z,99476.39
2019-04-04T03:03:41.151Z,99469.75
2019-04-04T03:06:09.829Z,99464.42
2019-04-04T03:08:41.035Z,99469.16
2019-04-04T03:11:12.191Z,99482.27
2019-04-04T03:13:43.358Z,99471.78
2019-04-04T03:16:14.528Z,99473.04
2019-04-04T03:18:45.682Z,99472.59
2019-04-04T03:21:16.815Z,99470.70
2019-04-04T03:23:48.051Z,99468.34
2019-04-04T03:26:20.595Z,99472.59
2019-04-04T03:28:51.854Z,99467.70
2019-04-04T03:31:22.968Z,99463.67
2019-04-04T03:33:54.163Z,99469.73
2019-04-04T03:36:25.279Z,99474.11
2019-04-04T03:38:56.443Z,99473.16
2019-04-04T03:41:30.673Z,99480.61
2019-04-04T03:44:00.440Z,99470.05
2019-04-04T03:46:37.434Z,99462.13
2019-04-04T03:49:05.540Z,99451.65
2019-04-04T03:51:37.986Z,99451.65
2019-04-04T03:54:16.721Z,99450.39
2019-04-04T03:56:47.885Z,99444.37
2019-04-04T03:59:18.975Z,99439.18
2019-04-04T04:01:50.147Z,99431.45
2019-04-04T04:04:26.809Z,99442.48
2019-04-04T04:06:55.969Z,99436.06
2019-04-04T04:09:27.328Z,99429.61
2019-04-04T04:11:58.628Z,99416.14
2019-04-04T04:14:29.826Z,99404.44
2019-04-04T04:17:01.187Z,99392.77
2019-04-04T04:19:32.392Z,99385.40
2019-04-04T04:22:03.552Z,99379.38
2019-04-04T04:24:34.743Z,99394.75
2019-04-04T04:27:05.934Z,99405.64
2019-04-04T04:29:37.136Z,99405.96
2019-04-04T04:32:08.293Z,99401.45
2019-04-04T04:34:39.459Z,99404.39
2019-04-04T04:37:10.641Z,99405.74
2019-04-04T04:39:41.779Z,99403.61
2019-04-04T04:42:13.039Z,99410.53
2019-04-04T04:44:44.179Z,99414.47
2019-04-04T04:47:15.339Z,99414.05
2019-04-04T04:49:46.553Z,99422.16
2019-04-04T04:52:17.751Z,99429.87
2019-04-04T04:54:48.943Z,99439.77
2019-04-04T04:57:29.354Z,99451.39
2019-04-04T04:59:53.019Z,99456.12
2019-04-04T05:02:24.144Z,99459.10
2019-04-04T05:04:55.272Z,99463.58
2019-04-04T05:07:26.432Z,99470.59
2019-04-04T05:09:57.592Z,99482.33
2019-04-04T05:12:28.744Z,99470.95
2019-04-04T05:15:01.432Z,99460.87
2019-04-04T05:17:32.837Z,99468.81
2019-04-04T05:20:04.812Z,99475.78
2019-04-04T05:22:35.950Z,99478.35
2019-04-04T05:25:08.726Z,99471.44
2019-04-04T05:27:40.311Z,99465.94
2019-04-04T05:30:11.519Z,99463.45
2019-04-04T05:32:42.705Z,99475.34
2019-04-04T05:35:15.225Z,99478.42
2019-04-04T05:37:46.653Z,99465.85
2019-04-04T05:40:17.832Z,99468.62
2019-04-04T05:42:49.090Z,99473.55
2019-04-04T05:45:20.227Z,99465.81
2019-04-04T05:47:54.973Z,99471.88
2019-04-04T05:50:25.400Z,99470.20
2019-04-04T05:52:56.517Z,99463.19
2019-04-04T05:55:27.693Z,99473.19
2019-04-04T05:57:58.834Z,99476.76
2019-04-04T06:00:29.984Z,99482.05
2019-04-04T06:03:01.160Z,99494.21
2019-04-04T06:05:32.354Z,99500.41
2019-04-04T06:08:03.549Z,99502.66
2019-04-04T06:10:34.936Z,99491.18
2019-04-04T06:13:06.101Z,99495.97
2019-04-04T06:15:37.248Z,99490.33
2019-04-04T06:18:10.977Z,99490.45
2019-04-04T06:20:41.268Z,99494.89
2019-04-04T06:23:12.441Z,99490.64
2019-04-04T06:25:43.616Z,99473.60
2019-04-04T06:28:14.801Z,99467.85
2019-04-04T06:30:45.997Z,99458.72
2019-04-04T06:33:17.245Z,99456.05
2019-04-04T06:35:48.434Z,99461.92
2019-04-04T06:38:23.080Z,99462.24
2019-04-04T06:40:53.556Z,99465.32
2019-04-04T06:43:24.750Z,99461.03
2019-04-04T06:45:55.934Z,99464.91
2019-04-04T06:48:29.298Z,99465.81
2019-04-04T06:51:00.018Z,99464.59
2019-04-04T06:53:31.205Z,99461.88
2019-04-04T06:56:03.027Z,99455.20
2019-04-04T06:58:34.276Z,99444.25
2019-04-04T07:01:05.446Z,99435.66
2019-04-04T07:03:36.639Z,99441.09
2019-04-04T07:06:09.837Z,99446.97
2019-04-04T07:08:40.687Z,99439.27
2019-04-04T07:11:21.096Z,99441.21
2019-04-04T07:13:44.940Z,99439.09
2019-04-04T07:16:16.089Z,99456.27
2019-04-04T07:18:47.316Z,99465.49
2019-04-04T07:21:20.207Z,99476.98
2019-04-04T07:23:51.450Z,99475.04
2019-04-04T07:26:22.684Z,99471.88
2019-04-04T07:28:54.118Z,99471.88
2019-04-04T07:31:26.299Z,99456.95
2019-04-04T07:33:57.463Z,99469.25
2019-04-04T07:36:28.638Z,99479.38
2019-04-04T07:39:00.338Z,99484.67
2019-04-04T07:41:33.990Z,99488.16
2019-04-04T07:44:05.188Z,99474.82
2019-04-04T07:46:36.332Z,99465.64
2019-04-04T07:49:07.504Z,99467.58
2019-04-04T07:51:38.647Z,99468.37
2019-04-04T07:54:09.880Z,99469.55
2019-04-04T07:56:41.028Z,99459.35
2019-04-04T07:59:12.508Z,99448.33
2019-04-04T08:01:50.977Z,99440.26
2019-04-04T08:04:16.627Z,99438.78
2019-04-04T08:06:47.790Z,99439.02
2019-04-04T08:09:19.030Z,99437.59
2019-04-04T08:11:50.200Z,99433.39
2019-04-04T08:14:21.381Z,99428.38
2019-04-04T08:16:52.561Z,99428.45
2019-04-04T08:19:23.709Z,99435.67
2019-04-04T08:21:54.887Z,99443.38
2019-04-04T08:24:26.106Z,99450.88
2019-04-04T08:26:57.287Z,99456.74
2019-04-04T08:29:28.455Z,99456.78
2019-04-04T08:31:59.627Z,99456.78
2019-04-04T08:34:31.004Z,99475.66
2019-04-04T08:37:02.184Z,99469.92
2019-04-04T08:39:33.340Z,99462.53
2019-04-04T08:42:04.564Z,99459.98
2019-04-04T08:44:35.707Z,99459.68
2019-04-04T08:47:06.907Z,99454.98
2019-04-04T08:49:38.084Z,99459.49
2019-04-04T08:52:16.461Z,99463.52
2019-04-04T08:54:42.204Z,99463.59
2019-04-04T08:57:13.348Z,99464.16
2019-04-04T08:59:44.500Z,99457.28
2019-04-04T09:02:15.724Z,99467.53
2019-04-04T09:04:46.910Z,99471.55
2019-04-04T09:07:18.060Z,99472.07
2019-04-04T09:09:49.349Z,99462.34
2019-04-04T09:12:20.538Z,99462.34
2019-04-04T09:14:51.851Z,99461.10
2019-04-04T09:17:23.032Z,99463.35
2019-04-04T09:19:54.275Z,99448.81
2019-04-04T09:22:25.426Z,99441.34
2019-04-04T09:24:57.604Z,99441.38
2019-04-04T09:27:29.760Z,99451.06
2019-04-04T09:30:00.917Z,99451.89
2019-04-04T09:32:32.057Z,99462.56
2019-04-04T09:35:03.269Z,99463.19
2019-04-04T09:37:34.402Z,99471.15
2019-04-04T09:40:06.228Z,99473.06
2019-04-04T09:42:37.387Z,99471.89
2019-04-04T09:45:09.080Z,99469.36
2019-04-04T09:47:40.227Z,99464.31
2019-04-04T09:50:12.596Z,99465.31
2019-04-04T09:52:43.737Z,99462.78
2019-04-04T09:55:14.990Z,99468.50
2019-04-04T09:57:46.158Z,99457.07
2019-04-04T10:00:19.322Z,99458.00
2019-04-04T10:02:50.652Z,99461.95
2019-04-04T10:05:21.796Z,99469.81
2019-04-04T10:07:52.982Z,99470.75
2019-04-04T10:10:24.197Z,99473.94
2019-04-04T10:12:55.402Z,99467.91
2019-04-04T10:15:26.555Z,99471.02
2019-04-04T10:17:57.769Z,99462.26
2019-04-04T10:20:28.991Z,99458.76
2019-04-04T10:23:00.187Z,99458.34
2019-04-04T10:25:31.834Z,99459.73
2019-04-04T10:28:02.996Z,99458.99
2019-04-04T10:30:34.158Z,99451.61
2019-04-04T10:33:05.400Z,99444.22
2019-04-04T10:35:36.562Z,99446.86
2019-04-04T10:38:07.700Z,99439.53
2019-04-04T10:40:38.834Z,99433.05
2019-04-04T10:43:09.983Z,99430.86
2019-04-04T10:45:41.121Z,99437.13
2019-04-04T10:48:12.271Z,99432.50
2019-04-04T10:50:43.428Z,99439.75
2019-04-04T10:53:14.582Z,99439.95
2019-04-04T10:55:45.839Z,99443.19
2019-04-04T10:58:17.137Z,99441.12
2019-04-04T11:00:48.300Z,99451.39
2019-04-04T11:03:19.466Z,99456.34
2019-04-04T11:05:50.629Z,99462.59
2019-04-04T11:08:21.784Z,99454.71
2019-04-04T11:10:53.007Z,99452.20
2019-04-04T11:13:33.277Z,99452.23
2019-04-04T11:15:57.109Z,99448.19
2019-04-04T11:18:29.092Z,99458.64
2019-04-04T11:21:00.375Z,99452.52
2019-04-04T11:23:31.547Z,99453.96
2019-04-04T11:26:03.844Z,99453.59
2019-04-04T11:28:35.000Z,99455.84
2019-04-04T11:31:06.187Z,99450.20
2019-04-04T11:33:37.332Z,99445.91
2019-04-04T11:36:08.571Z,99446.95
2019-04-04T11:38:39.890Z,99447.51
2019-04-04T11:41:11.099Z,99455.50
2019-04-04T11:43:42.314Z,99458.69
2019-04-04T11:46:13.552Z,99458.86
2019-04-04T11:48:44.709Z,99456.33
2019-04-04T11:51:15.896Z,99454.66
2019-04-04T11:53:47.300Z,99452.07
2019-04-04T11:56:18.458Z,99448.66
2019-04-04T11:58:49.668Z,99452.36
2019-04-04T12:01:21.446Z,99448.56
2019-04-04T12:03:52.597Z,99440.86
2019-04-04T12:06:23.784Z,99434.50
2019-04-04T12:08:54.960Z,99420.21
2019-04-04T12:11:26.105Z,99421.91
2019-04-04T12:13:57.380Z,99427.88
2019-04-04T12:16:28.636Z,99429.39
2019-04-04T12:18:59.781Z,99438.39
2019-04-04T12:21:30.928Z,99441.61
2019-04-04T12:24:02.099Z,99433.75
2019-04-04T12:26:33.351Z,99424.17
2019-04-04T12:29:04.504Z,99434.39
2019-04-04T12:31:36.819Z,99433.68
2019-04-04T12:34:07.988Z,99442.22
2019-04-04T12:36:39.130Z,99444.10
2019-04-04T12:39:10.334Z,99440.02
2019-04-04T12:41:42.564Z,99440.90
2019-04-04T12:44:13.775Z,99441.40
2019-04-04T12:46:44.999Z,99435.34
2019-04-04T12:49:16.186Z,99439.03
2019-04-04T12:51:47.340Z,99438.72
2019-04-04T12:54:18.493Z,99440.17
2019-04-04T12:56:49.701Z,99432.80
2019-04-04T12:59:20.911Z,99431.13
2019-04-04T13:01:52.115Z,99419.70
2019-04-04T13:04:31.527Z,99427.26
2019-04-04T13:06:56.307Z,99420.77
2019-04-04T13:09:27.580Z,99412.53
2019-04-04T13:11:58.782Z,99412.23
2019-04-04T13:14:29.953Z,99418.13
2019-04-04T13:17:01.144Z,99404.16
2019-04-04T13:19:32.448Z,99398.92
2019-04-04T13:22:03.846Z,99398.13
2019-04-04T13:24:35.180Z,99385.77
2019-04-04T13:27:06.477Z,99377.39
2019-04-04T13:29:37.731Z,99380.06
2019-04-04T13:32:09.171Z,99386.24
2019-04-04T13:34:40.404Z,99377.87
2019-04-04T13:37:11.912Z,99375.64
2019-04-04T13:39:43.894Z,99372.12
2019-04-04T13:42:16.654Z,99366.31
2019-04-04T13:44:48.314Z,99365.50
2019-04-04T13:47:19.563Z,99366.33
2019-04-04T13:49:51.150Z,99372.49
2019-04-04T13:52:26.086Z,99369.80
2019-04-04T13:54:56.033Z,99367.17
2019-04-04T13:57:28.363Z,99367.42
2019-04-04T14:00:00.650Z,99365.98
2019-04-04T14:02:32.488Z,99365.98
2019-04-04T14:05:09.586Z,99358.56
2019-04-04T14:07:37.090Z,99357.05
2019-04-04T14:10:09.115Z,99353.30
2019-04-04T14:12:40.375Z,99346.51
2019-04-04T14:15:12.568Z,99353.45
2019-04-04T14:17:44.315Z,99340.42
2019-04-04T14:20:15.754Z,99340.19
2019-04-04T14:22:47.789Z,99331.80
2019-04-04T14:25:20.501Z,99335.08
2019-04-04T14:27:57.813Z,99337.58
2019-04-04T14:30:28.134Z,99336.05
2019-04-04T14:32:59.839Z,99336.61
2019-04-04T14:35:31.126Z,99326.00
2019-04-04T14:38:02.493Z,99324.11
2019-04-04T14:40:33.818Z,99317.66
2019-04-04T14:43:05.071Z,99315.02
2019-04-04T14:45:36.452Z,99316.55
2019-04-04T14:48:08.732Z,99315.81
2019-04-04T14:50:40.736Z,99312.98
2019-04-04T14:53:12.018Z,99315.39
2019-04-04T14:55:43.275Z,99316.69
2019-04-04T14:58:16.523Z,99316.77
2019-04-04T15:00:48.074Z,99313.27
2019-04-04T15:03:20.851Z,99314.45
2019-04-04T15:05:52.724Z,99314.45
2019-04-04T15:08:23.999Z,99311.97
2019-04-04T15:11:01.276Z,99317.30
2019-04-04T15:13:34.232Z,99308.61
2019-04-04T15:16:19.089Z,99318.51
2019-04-04T15:18:53.115Z,99309.31
2019-04-04T15:21:27.333Z,99310.94
2019-04-04T15:23:58.952Z,99325.30
2019-04-04T15:26:30.389Z,99316.41
2019-04-04T15:29:01.689Z,99326.14
2019-04-04T15:31:32.977Z,99329.55
2019-04-04T15:34:04.282Z,99323.07
2019-04-04T15:36:35.599Z,99326.26
2019-04-04T15:39:07.500Z,99325.94
2019-04-04T15:41:39.029Z,99323.33
2019-04-04T15:44:10.468Z,99324.63
2019-04-04T15:46:44.190Z,99323.20
2019-04-04T15:49:15.465Z,99318.25
2019-04-04T15:51:46.892Z,99318.06
2019-04-04T15:54:18.951Z,99324.09
2019-04-04T15:56:50.322Z,99326.69
2019-04-04T15:59:21.668Z,99317.81
2019-04-04T16:01:52.966Z,99321.92
2019-04-04T16:04:24.299Z,99333.61
2019-04-04T16:06:55.755Z,99336.42
2019-04-04T16:09:30.304Z,99344.53
2019-04-04T16:12:05.535Z,99352.15
2019-04-04T16:14:43.678Z,99361.97
2019-04-04T16:17:16.779Z,99365.48
2019-04-04T16:19:48.302Z,99357.05
2019-04-04T16:22:19.658Z,99360.59
2019-04-04T16:24:53.445Z,99366.36
2019-04-04T16:27:24.925Z,99366.79
2019-04-04T16:29:56.249Z,99369.88
2019-04-04T16:32:27.614Z,99363.69
2019-04-04T16:34:59.009Z,99365.02
2019-04-04T16:37:30.266Z,99364.61
2019-04-04T16:40:08.629Z,99372.16
2019-04-04T16:42:35.579Z,99368.13
2019-04-04T16:45:07.641Z,99372.56
2019-04-04T16:47:39.062Z,99374.66
2019-04-04T16:50:10.445Z,99388.19
2019-04-04T16:52:41.917Z,99395.91
2019-04-04T16:55:13.592Z,99401.89
2019-04-04T16:57:45.036Z,99403.61
2019-04-04T17:00:16.793Z,99410.19
2019-04-04T17:02:48.334Z,99414.58
2019-04-04T17:05:20.105Z,99416.74
2019-04-04T17:07:51.559Z,99418.80
2019-04-04T17:10:22.999Z,99425.66
2019-04-04T17:12:54.279Z,99436.92
2019-04-04T17:15:27.340Z,99433.62
2019-04-04T17:17:58.668Z,99443.83
2019-04-04T17:20:29.930Z,99450.14
2019-04-04T17:23:01.267Z,99456.97
2019-04-04T17:25:32.743Z,99463.77
2019-04-04T17:28:04.496Z,99460.55
2019-04-04T17:30:36.142Z,99452.73
2019-04-04T17:33:07.517Z,99461.25
2019-04-04T17:35:39.394Z,99459.11
2019-04-04T17:38:10.962Z,99463.66
2019-04-04T17:40:42.399Z,99473.07
2019-04-04T17:43:13.795Z,99480.81
2019-04-04T17:45:45.075Z,99482.25
2019-04-04T17:48:16.568Z,99485.89
2019-04-04T17:50:48.708Z,99479.38
2019-04-04T17:53:20.284Z,99476.48
2019-04-04T17:55:55.533Z,99485.50
2019-04-04T17:58:27.960Z,99491.91
2019-04-04T18:01:06.893Z,99492.13
2019-04-04T18:03:41.008Z,99492.87
2019-04-04T18:06:12.573Z,99492.71
2019-04-04T18:08:44.014Z,99494.68
2019-04-04T18:11:15.512Z,99486.97
2019-04-04T18:13:46.923Z,99496.09
2019-04-04T18:16:18.523Z,99497.63
2019-04-04T18:18:49.938Z,99507.52
2019-04-04T18:21:21.169Z,99514.34
2019-04-04T18:23:52.839Z,99518.05
2019-04-04T18:26:24.301Z,99517.91
2019-04-04T18:28:55.740Z,99528.61
2019-04-04T18:31:28.290Z,99531.34
2019-04-04T18:33:59.846Z,99532.81
2019-04-04T18:36:31.280Z,99527.70
2019-04-04T18:39:02.676Z,99528.31
2019-04-04T18:41:35.934Z,99534.73
2019-04-04T18:44:07.263Z,99542.42
2019-04-04T18:46:38.574Z,99551.89
2019-04-04T18:49:09.894Z,99552.59
2019-04-04T18:55:19.546Z,99547.55
2019-04-04T18:57:43.989Z,99538.48
2019-04-04T19:00:15.777Z,99540.22
2019-04-04T19:02:54.098Z,99538.33
2019-04-04T19:05:26.399Z,99534.84
2019-04-04T19:07:59.702Z,99539.61
2019-04-04T19:10:33.029Z,99544.37
2019-04-04T19:13:07.477Z,99541.63
2019-04-04T19:15:44.967Z,99540.64
2019-04-04T19:18:16.416Z,99549.75
2019-04-04T19:21:04.433Z,99546.09
2019-04-04T19:23:48.655Z,99555.08
2019-04-04T19:26:20.057Z,99559.34
2019-04-04T19:28:53.826Z,99559.30
2019-04-04T19:31:25.068Z,99558.20
2019-04-04T19:33:56.461Z,99560.64
2019-04-04T19:36:27.763Z,99558.30
2019-04-04T19:39:00.403Z,99561.63
2019-04-04T19:41:34.317Z,99561.22
2019-04-04T19:44:05.985Z,99557.23
2019-04-04T19:46:37.558Z,99558.50
2019-04-04T19:49:08.948Z,99564.39
2019-04-04T19:51:40.254Z,99563.86
2019-04-04T19:54:11.596Z,99569.47
2019-04-04T19:56:42.980Z,99575.09
2019-04-04T19:59:14.768Z,99577.25
2019-04-04T20:01:46.104Z,99583.23
2019-04-04T20:04:17.590Z,99592.78
2019-04-04T20:06:48.879Z,99589.66
2019-04-04T20:09:20.329Z,99592.69
2019-04-04T20:11:52.222Z,99583.91
2019-04-04T20:14:27.463Z,99583.95
2019-04-04T20:16:56.543Z,99584.86
2019-04-04T20:19:28.072Z,99583.14
2019-04-04T20:21:59.335Z,99584.91
2019-04-04T20:24:30.987Z,99591.06
2019-04-04T20:27:05.238Z,99593.28
2019-04-04T20:29:36.497Z,99589.39
2019-04-04T20:32:08.148Z,99598.72
2019-04-04T20:34:39.741Z,99593.09
2019-04-04T20:37:11.224Z,99603.14
2019-04-04T20:39:42.753Z,99601.70
2019-04-04T20:42:14.133Z,99605.59
2019-04-04T20:44:45.636Z,99609.03
2019-04-04T20:47:17.349Z,99608.08
2019-04-04T20:49:48.789Z,99604.50
2019-04-04T20:52:20.299Z,99611.11
2019-04-04T20:54:51.573Z,99608.48
2019-04-04T20:57:22.991Z,99622.15
2019-04-04T20:59:54.223Z,99622.56
2019-04-04T21:02:26.770Z,99630.84
2019-04-04T21:04:58.140Z,99640.45
2019-04-04T21:07:29.550Z,99636.45
2019-04-04T21:10:02.088Z,99640.89
2019-04-04T21:12:33.472Z,99640.76
2019-04-04T21:15:07.793Z,99641.61
2019-04-04T21:17:39.206Z,99641.56
2019-04-04T21:20:10.722Z,99643.69
2019-04-04T21:22:42.143Z,99641.07
2019-04-04T21:25:13.443Z,99647.17
2019-04-04T21:27:44.810Z,99642.23
2019-04-04T21:30:16.981Z,99646.17
2019-04-04T21:32:48.255Z,99640.88
2019-04-04T21:35:19.492Z,99643.91
2019-04-04T21:37:50.791Z,99648.39
2019-04-04T21:40:22.052Z,99651.42
2019-04-04T21:42:54.051Z,99649.26
2019-04-04T21:45:27.424Z,99655.00
2019-04-04T21:47:58.311Z,99652.33
2019-04-04T21:50:29.695Z,99661.88
2019-04-04T21:53:00.918Z,99666.63
2019-04-04T21:55:32.213Z,99666.22
2019-04-04T21:58:03.687Z,99678.75
2019-04-04T22:00:41.318Z,99690.91
2019-04-04T22:03:13.346Z,99690.81
2019-04-04T22:05:44.701Z,99698.19
2019-04-04T22:08:15.998Z,99701.77
2019-04-04T22:10:47.375Z,99700.95
2019-04-04T22:13:18.828Z,99702.27
2019-04-04T22:15:50.209Z,99695.16
2019-04-04T22:18:21.530Z,99695.56
2019-04-04T22:20:52.884Z,99702.98
2019-04-04T22:23:24.184Z,99702.98
2019-04-04T22:25:55.465Z,99701.26
2019-04-04T22:28:26.856Z,99702.08
2019-04-04T22:30:58.086Z,99709.54
2019-04-04T22:33:29.431Z,99699.45
2019-04-04T22:36:00.693Z,99699.86
2019-04-04T22:38:32.005Z,99703.34
2019-04-04T22:41:03.426Z,99707.73
2019-04-04T22:43:34.800Z,99704.29
2019-04-04T22:46:06.196Z,99701.56
2019-04-04T22:48:37.513Z,99700.61
2019-04-04T22:51:08.787Z,99702.25
2019-04-04T22:53:40.067Z,99701.70
2019-04-04T22:56:11.356Z,99691.61
2019-04-04T22:58:42.676Z,99696.09
2019-04-04T23:01:14.044Z,99699.70
2019-04-04T23:03:45.288Z,99708.53
2019-04-04T23:06:16.534Z,99718.62
2019-04-04T23:08:47.898Z,99721.66
2019-04-04T23:11:19.156Z,99736.90
2019-04-04T23:13:50.415Z,99750.78
2019-04-04T23:16:21.711Z,99749.42
2019-04-04T23:18:53.021Z,99751.55
2019-04-04T23:21:24.338Z,99747.61
2019-04-04T23:23:55.592Z,99748.02
2019-04-04T23:26:26.879Z,99745.34
2019-04-04T23:28:59.135Z,99744.83
2019-04-04T23:31:30.411Z,99739.44
2019-04-04T23:34:01.939Z,99734.94
2019-04-04T23:36:35.253Z,99744.03
2019-04-04T23:39:07.485Z,99748.70
2019-04-04T23:41:38.731Z,99756.48
2019-04-04T23:44:10.181Z,99748.16
2019-04-04T23:46:41.466Z,99742.80
2019-04-04T23:49:12.691Z,99743.67
2019-04-04T23:51:44.079Z,99746.80
2019-04-04T23:54:15.349Z,99744.63
2019-04-04T23:56:46.737Z,99749.94
2019-04-04T23:59:18.025Z,99758.30
